Terminal Aerodrome Forecast
Issued by NWS Jackson, KY

Home | Current Version | Previous Version | Text Only | Print | Product List | Glossary Off
Versions: 1 2 3 4 5 6 7 8 9 10 11 12

494
FTUS43 KJKL 230539
TAFJKL
TAF
KJKL 230539Z 2306/2406 20004KT P6SM BKN040 WS020/22045KT
     FM231000 20005KT P6SM BKN025 WS020/22045KT
     FM231800 21008G16KT P6SM VCTS BKN035CB BKN200
     FM232300 21007G15KT 2SM SHRA BR VCTS OVC015CB
     FM240200 29005KT 2SM SHRA BR OVC008=

USA.gov is the U.S. government's official web portal to all federal, state and local government web resources and services.